createdAt,value
2023-04-18T00:00:14.094Z,34.99
2023-04-18T00:01:14.106Z,34.97
2023-04-18T00:02:14.203Z,35.00
2023-04-18T00:03:14.339Z,34.98
2023-04-18T00:04:14.551Z,34.96
2023-04-18T00:05:14.302Z,34.92
2023-04-18T00:06:14.289Z,34.86
2023-04-18T00:07:14.298Z,34.90
2023-04-18T00:08:14.364Z,34.88
2023-04-18T00:09:14.428Z,34.89
2023-04-18T00:10:14.444Z,34.87
2023-04-18T00:11:14.509Z,34.91
2023-04-18T00:12:14.507Z,34.91
2023-04-18T00:13:14.532Z,34.87
2023-04-18T00:14:14.802Z,34.89
2023-04-18T00:15:14.596Z,34.88
2023-04-18T00:16:14.745Z,34.91
2023-04-18T00:17:14.744Z,34.94
2023-04-18T00:18:14.734Z,34.97
2023-04-18T00:19:14.768Z,34.94
2023-04-18T00:20:14.841Z,34.96
2023-04-18T00:21:14.885Z,34.96
2023-04-18T00:22:14.875Z,34.92
2023-04-18T00:23:14.945Z,34.94
2023-04-18T00:24:15.055Z,34.91
2023-04-18T00:25:15.017Z,34.92
2023-04-18T00:26:15.052Z,34.94
2023-04-18T00:27:15.063Z,34.96
2023-04-18T00:28:15.167Z,34.95
2023-04-18T00:29:15.168Z,35.00
2023-04-18T00:30:15.319Z,34.97
2023-04-18T00:31:15.311Z,35.00
2023-04-18T00:32:15.339Z,35.02
2023-04-18T00:33:15.364Z,35.05
2023-04-18T00:34:15.528Z,35.07
2023-04-18T00:35:15.449Z,35.08
2023-04-18T00:36:15.495Z,35.12
2023-04-18T00:37:15.553Z,35.10
2023-04-18T00:38:15.593Z,35.12
2023-04-18T00:39:15.647Z,35.17
2023-04-18T00:40:15.700Z,35.15
2023-04-18T00:41:15.770Z,35.12
2023-04-18T00:42:15.777Z,35.11
2023-04-18T00:43:15.853Z,35.08
2023-04-18T00:44:16.037Z,35.07
2023-04-18T00:45:15.959Z,35.09
2023-04-18T00:46:16.037Z,35.07
2023-04-18T00:47:16.073Z,35.09
2023-04-18T00:48:16.110Z,35.09
2023-04-18T00:49:16.150Z,35.11
2023-04-18T00:50:16.228Z,35.08
2023-04-18T00:51:16.276Z,35.09
2023-04-18T00:52:16.282Z,35.07
2023-04-18T00:53:16.356Z,35.09
2023-04-18T00:54:16.475Z,35.06
2023-04-18T00:55:16.487Z,35.05
2023-04-18T00:56:16.495Z,35.05
2023-04-18T00:57:16.559Z,35.10
2023-04-18T00:58:16.618Z,35.09
2023-04-18T00:59:16.670Z,35.13
2023-04-18T01:00:16.706Z,35.08
2023-04-18T01:01:16.795Z,35.13
2023-04-18T01:02:16.954Z,35.12
2023-04-18T01:03:16.937Z,35.12
2023-04-18T01:04:17.337Z,35.12
2023-04-18T01:05:16.956Z,35.09
2023-04-18T01:06:17.006Z,35.12
2023-04-18T01:07:17.097Z,35.06
2023-04-18T01:08:17.133Z,35.05
2023-04-18T01:09:17.222Z,35.07
2023-04-18T01:10:17.257Z,35.05
2023-04-18T01:11:17.301Z,35.07
2023-04-18T01:12:17.356Z,35.09
2023-04-18T01:13:17.403Z,35.06
2023-04-18T01:14:17.471Z,35.07
2023-04-18T01:15:17.489Z,35.01
2023-04-18T01:16:17.663Z,35.04
2023-04-18T01:17:17.606Z,34.99
2023-04-18T01:18:17.652Z,35.01
2023-04-18T01:19:17.735Z,35.00
2023-04-18T01:20:17.816Z,35.03
2023-04-18T01:21:17.857Z,35.00
2023-04-18T01:22:17.880Z,35.01
2023-04-18T01:23:17.912Z,35.03
2023-04-18T01:24:18.011Z,35.03
2023-04-18T01:25:18.022Z,35.02
2023-04-18T01:26:18.077Z,35.06
2023-04-18T01:27:18.162Z,35.01
2023-04-18T01:28:18.224Z,34.98
2023-04-18T01:29:18.259Z,34.96
2023-04-18T01:30:18.319Z,34.92
2023-04-18T01:31:18.418Z,34.94
2023-04-18T01:32:18.425Z,34.93
2023-04-18T01:33:18.522Z,34.92
2023-04-18T01:34:18.548Z,34.92
2023-04-18T01:35:18.603Z,34.91
2023-04-18T01:36:18.653Z,34.91
2023-04-18T01:37:18.727Z,34.90
2023-04-18T01:38:18.783Z,34.86
2023-04-18T01:39:18.880Z,34.84
2023-04-18T01:40:18.883Z,34.82
2023-04-18T01:41:18.961Z,34.81
2023-04-18T01:42:19.002Z,34.81
2023-04-18T01:43:19.084Z,34.79
2023-04-18T01:44:19.168Z,34.78
2023-04-18T01:45:19.187Z,34.77
2023-04-18T01:46:19.325Z,34.75
2023-04-18T01:47:19.349Z,34.75
2023-04-18T01:48:19.352Z,34.70
2023-04-18T01:49:19.459Z,34.68
2023-04-18T01:50:19.492Z,34.70
2023-04-18T01:51:19.545Z,34.73
2023-04-18T01:52:19.641Z,34.66
2023-04-18T01:53:19.667Z,34.64
2023-04-18T01:54:19.844Z,34.65
2023-04-18T01:55:19.802Z,34.61
2023-04-18T01:56:19.848Z,34.62
2023-04-18T01:57:19.912Z,34.60
2023-04-18T01:58:19.951Z,34.63
2023-04-18T01:59:20.028Z,34.62
2023-04-18T02:00:20.055Z,34.58
2023-04-18T02:01:20.233Z,34.62
2023-04-18T02:02:20.292Z,34.64
2023-04-18T02:03:20.437Z,34.60
2023-04-18T02:04:20.359Z,34.57
2023-04-18T02:05:20.402Z,34.58
2023-04-18T02:06:20.505Z,34.61
2023-04-18T02:07:20.457Z,34.59
2023-04-18T02:08:20.556Z,34.60
2023-04-18T02:09:20.626Z,34.64
2023-04-18T02:10:20.678Z,34.60
2023-04-18T02:11:20.765Z,34.54
2023-04-18T02:12:20.823Z,34.53
2023-04-18T02:13:20.869Z,34.51
2023-04-18T02:14:20.952Z,34.50
2023-04-18T02:15:21.011Z,34.48
2023-04-18T02:16:21.118Z,34.45
2023-04-18T02:17:21.184Z,34.42
2023-04-18T02:18:21.219Z,34.42
2023-04-18T02:19:21.307Z,34.36
2023-04-18T02:20:21.336Z,34.41
2023-04-18T02:21:21.366Z,34.38
2023-04-18T02:22:21.457Z,34.36
2023-04-18T02:23:21.553Z,34.33
2023-04-18T02:24:21.615Z,34.31
2023-04-18T02:25:21.673Z,34.27
2023-04-18T02:26:21.704Z,34.29
2023-04-18T02:27:21.799Z,34.23
2023-04-18T02:28:21.828Z,34.25
2023-04-18T02:29:21.883Z,34.21
2023-04-18T02:30:21.968Z,34.19
2023-04-18T02:31:22.060Z,34.19
2023-04-18T02:32:22.093Z,34.16
2023-04-18T02:33:22.154Z,34.16
2023-04-18T02:34:22.228Z,34.14
2023-04-18T02:35:22.262Z,34.12
2023-04-18T02:36:22.309Z,34.16
2023-04-18T02:37:22.370Z,34.12
2023-04-18T02:38:22.454Z,34.07
2023-04-18T02:39:22.482Z,34.12
2023-04-18T02:40:22.627Z,34.06
2023-04-18T02:41:22.666Z,34.07
2023-04-18T02:42:22.710Z,34.09
2023-04-18T02:43:22.773Z,34.05
2023-04-18T02:44:22.810Z,34.05
2023-04-18T02:45:22.908Z,34.03
2023-04-18T02:46:23.055Z,34.01
2023-04-18T02:47:23.021Z,34.05
2023-04-18T02:48:23.065Z,34.08
2023-04-18T02:49:23.133Z,34.07
2023-04-18T02:50:23.146Z,34.07
2023-04-18T02:51:23.200Z,34.10
2023-04-18T02:52:23.300Z,34.06
2023-04-18T02:53:23.291Z,34.05
2023-04-18T02:54:23.356Z,34.02
2023-04-18T02:55:23.430Z,34.04
2023-04-18T02:56:23.500Z,34.07
2023-04-18T02:57:23.563Z,34.11
2023-04-18T02:58:23.612Z,34.10
2023-04-18T02:59:23.684Z,34.08
2023-04-18T03:00:23.728Z,34.09
2023-04-18T03:01:23.751Z,34.07
2023-04-18T03:02:23.876Z,34.04
2023-04-18T03:03:23.932Z,34.01
2023-04-18T03:04:23.928Z,34.02
2023-04-18T03:05:23.920Z,34.01
2023-04-18T03:06:24.007Z,33.96
2023-04-18T03:07:24.038Z,33.98
2023-04-18T03:08:24.047Z,33.97
2023-04-18T03:09:24.097Z,33.96
2023-04-18T03:10:24.155Z,33.98
2023-04-18T03:11:24.161Z,34.00
2023-04-18T03:12:24.197Z,34.01
2023-04-18T03:13:24.233Z,34.02
2023-04-18T03:14:24.261Z,34.01
2023-04-18T03:15:24.277Z,33.97
2023-04-18T03:16:24.315Z,34.00
2023-04-18T03:17:24.308Z,33.98
2023-04-18T03:18:24.349Z,33.98
2023-04-18T03:19:24.298Z,33.99
2023-04-18T03:20:24.404Z,33.99
2023-04-18T03:21:24.357Z,33.94
2023-04-18T03:22:24.338Z,33.93
2023-04-18T03:23:24.397Z,33.94
2023-04-18T03:24:24.448Z,33.96
2023-04-18T03:25:24.400Z,33.96
2023-04-18T03:26:24.447Z,33.95
2023-04-18T03:27:24.474Z,34.02
2023-04-18T03:28:24.464Z,33.97
2023-04-18T03:29:24.448Z,33.94
2023-04-18T03:30:24.421Z,33.98
2023-04-18T03:31:24.467Z,33.96
2023-04-18T03:32:24.463Z,33.96
2023-04-18T03:33:24.401Z,33.93
2023-04-18T03:34:24.408Z,33.92
2023-04-18T03:35:24.412Z,33.94
2023-04-18T03:36:24.408Z,33.92
2023-04-18T03:37:24.392Z,33.90
2023-04-18T03:38:24.428Z,33.89
2023-04-18T03:39:24.396Z,33.90
2023-04-18T03:40:24.434Z,33.89
2023-04-18T03:41:24.426Z,33.88
2023-04-18T03:42:24.422Z,33.89
2023-04-18T03:43:24.403Z,33.90
2023-04-18T03:44:24.474Z,33.93
2023-04-18T03:45:24.421Z,33.90
2023-04-18T03:46:24.484Z,33.94
2023-04-18T03:47:24.414Z,33.95
2023-04-18T03:48:24.388Z,33.96
2023-04-18T03:49:24.366Z,33.92
2023-04-18T03:50:24.475Z,33.90
2023-04-18T03:51:24.408Z,33.92
2023-04-18T03:52:24.386Z,33.90
2023-04-18T03:53:24.368Z,33.89
2023-04-18T03:54:24.376Z,33.86
2023-04-18T03:55:24.356Z,33.87
2023-04-18T03:56:24.385Z,33.87
2023-04-18T03:57:24.357Z,33.87
2023-04-18T03:58:24.365Z,33.89
2023-04-18T03:59:24.362Z,33.88
2023-04-18T04:00:24.352Z,33.88
2023-04-18T04:01:24.341Z,33.87
2023-04-18T04:02:24.515Z,33.91
2023-04-18T04:03:24.476Z,33.89
2023-04-18T04:05:24.389Z,33.89
2023-04-18T04:06:24.341Z,33.85
2023-04-18T04:07:24.322Z,33.87
2023-04-18T04:08:25.098Z,33.85
2023-04-18T04:09:24.332Z,33.86
2023-04-18T04:10:24.374Z,33.82
2023-04-18T04:11:24.336Z,33.83
2023-04-18T04:12:24.330Z,33.80
2023-04-18T04:13:24.293Z,33.84
2023-04-18T04:14:24.298Z,33.80
2023-04-18T04:15:24.401Z,33.82
2023-04-18T04:16:24.320Z,33.83
2023-04-18T04:17:24.425Z,33.83
2023-04-18T04:18:24.337Z,33.81
2023-04-18T04:19:24.296Z,33.82
2023-04-18T04:20:24.376Z,33.82
2023-04-18T04:21:24.309Z,33.84
2023-04-18T04:22:24.316Z,33.85
2023-04-18T04:23:24.311Z,33.88
2023-04-18T04:24:24.315Z,33.89
2023-04-18T04:25:24.354Z,33.88
2023-04-18T04:26:24.307Z,33.85
2023-04-18T04:27:24.351Z,33.87
2023-04-18T04:28:24.311Z,33.87
2023-04-18T04:29:24.324Z,33.80
2023-04-18T04:30:24.335Z,33.79
2023-04-18T04:31:24.361Z,33.78
2023-04-18T04:32:24.358Z,33.78
2023-04-18T04:33:24.340Z,33.80
2023-04-18T04:34:24.330Z,33.81
2023-04-18T04:35:24.319Z,33.81
2023-04-18T04:36:24.344Z,33.81
2023-04-18T04:37:24.393Z,33.86
2023-04-18T04:38:24.356Z,33.88
2023-04-18T04:39:24.382Z,33.84
2023-04-18T04:40:24.390Z,33.78
2023-04-18T04:41:24.372Z,33.79
2023-04-18T04:42:24.368Z,33.82
2023-04-18T04:43:24.370Z,33.81
2023-04-18T04:44:24.429Z,33.79
2023-04-18T04:45:24.533Z,33.80
2023-04-18T04:46:24.455Z,33.80
2023-04-18T04:47:24.458Z,33.80
2023-04-18T04:48:24.423Z,33.83
2023-04-18T04:49:24.435Z,33.97
2023-04-18T04:50:24.435Z,34.11
2023-04-18T04:51:24.435Z,34.41
2023-04-18T04:52:24.464Z,34.48
2023-04-18T04:53:24.415Z,35.06
2023-04-18T04:54:24.416Z,35.05
2023-04-18T04:55:24.444Z,35.12
2023-04-18T04:56:24.405Z,34.92
2023-04-18T04:57:24.386Z,35.29
2023-04-18T04:58:24.407Z,35.45
2023-04-18T04:59:24.390Z,35.75
2023-04-18T05:00:24.410Z,35.87
2023-04-18T05:01:24.483Z,35.88
2023-04-18T05:02:24.563Z,35.89
2023-04-18T05:03:24.513Z,35.86
2023-04-18T05:04:24.606Z,35.94
2023-04-18T05:05:24.522Z,36.02
2023-04-18T05:06:24.436Z,36.14
2023-04-18T05:07:24.452Z,36.17
2023-04-18T05:08:24.471Z,36.29
2023-04-18T05:09:24.469Z,36.41
2023-04-18T05:10:24.493Z,36.42
2023-04-18T05:11:24.501Z,36.69
2023-04-18T05:12:24.522Z,36.57
2023-04-18T05:13:24.548Z,36.98
2023-04-18T05:14:24.548Z,36.82
2023-04-18T05:15:24.589Z,36.95
2023-04-18T05:16:24.614Z,37.00
2023-04-18T05:17:24.643Z,37.07
2023-04-18T05:18:24.585Z,37.03
2023-04-18T05:19:24.584Z,37.12
2023-04-18T05:20:24.618Z,37.10
2023-04-18T05:21:24.648Z,37.04
2023-04-18T05:22:24.665Z,37.18
2023-04-18T05:23:24.681Z,37.34
2023-04-18T05:24:24.741Z,37.37
2023-04-18T05:25:24.778Z,37.53
2023-04-18T05:26:24.829Z,37.50
2023-04-18T05:27:25.843Z,37.57
2023-04-18T05:28:24.880Z,37.50
2023-04-18T05:29:24.915Z,37.59
2023-04-18T05:30:25.323Z,37.74
2023-04-18T05:31:25.042Z,37.75
2023-04-18T05:32:25.011Z,37.81
2023-04-18T05:33:25.075Z,37.91
2023-04-18T05:34:25.105Z,38.01
2023-04-18T05:35:25.179Z,37.98
2023-04-18T05:36:25.195Z,38.07
2023-04-18T05:37:25.270Z,38.16
2023-04-18T05:38:25.296Z,38.40
2023-04-18T05:39:25.364Z,38.85
2023-04-18T05:40:25.825Z,38.96
2023-04-18T05:41:25.496Z,39.57
2023-04-18T05:42:25.535Z,39.53
2023-04-18T05:43:25.625Z,39.78
2023-04-18T05:44:25.728Z,40.49
2023-04-18T05:45:25.712Z,41.01
2023-04-18T05:46:25.828Z,40.68
2023-04-18T05:47:25.860Z,40.79
2023-04-18T05:48:25.895Z,41.47
2023-04-18T05:49:25.894Z,41.79
2023-04-18T05:50:25.946Z,41.66
2023-04-18T05:51:25.942Z,41.80
2023-04-18T05:52:25.993Z,42.00
2023-04-18T05:53:26.012Z,41.84
2023-04-18T05:54:26.042Z,42.40
2023-04-18T05:55:26.070Z,42.19
2023-04-18T05:56:26.114Z,42.38
2023-04-18T05:57:26.146Z,42.56
2023-04-18T05:58:26.165Z,42.21
2023-04-18T05:59:26.188Z,42.30
2023-04-18T06:00:26.226Z,42.32
2023-04-18T06:01:26.224Z,42.28
2023-04-18T06:02:26.407Z,42.11
2023-04-18T06:03:26.505Z,42.06
2023-04-18T06:04:26.381Z,41.95
2023-04-18T06:05:26.491Z,42.06
2023-04-18T06:06:26.374Z,42.03
2023-04-18T06:07:26.404Z,41.89
2023-04-18T06:08:26.448Z,41.80
2023-04-18T06:09:26.461Z,41.61
2023-04-18T06:10:26.515Z,41.63
2023-04-18T06:11:26.549Z,41.57
2023-04-18T06:12:26.586Z,41.41
2023-04-18T06:13:26.640Z,41.41
2023-04-18T06:14:26.657Z,41.32
2023-04-18T06:15:26.706Z,41.34
2023-04-18T06:16:26.876Z,41.38
2023-04-18T06:17:26.862Z,41.29
2023-04-18T06:18:26.863Z,41.06
2023-04-18T06:19:26.873Z,41.23
2023-04-18T06:20:26.949Z,41.29
2023-04-18T06:21:26.981Z,41.18
2023-04-18T06:22:27.043Z,41.08
2023-04-18T06:23:27.090Z,41.08
2023-04-18T06:24:27.966Z,41.02
2023-04-18T06:25:27.181Z,40.93
2023-04-18T06:26:27.208Z,40.78
2023-04-18T06:27:31.508Z,40.70
2023-04-18T06:28:27.263Z,40.67
2023-04-18T06:29:35.065Z,40.70
2023-04-18T06:30:27.255Z,40.54
2023-04-18T06:31:27.287Z,40.46
2023-04-18T06:32:27.265Z,40.46
2023-04-18T06:33:27.225Z,40.44
2023-04-18T06:34:27.210Z,40.43
2023-04-18T06:35:27.217Z,40.41
2023-04-18T06:36:27.187Z,40.36
2023-04-18T06:37:27.205Z,40.41
2023-04-18T06:38:27.189Z,40.40
2023-04-18T06:39:27.203Z,40.40
2023-04-18T06:40:27.231Z,40.40
2023-04-18T06:41:27.193Z,40.39
2023-04-18T06:42:27.160Z,40.38
2023-04-18T06:43:27.179Z,40.41
2023-04-18T06:44:27.166Z,40.34
2023-04-18T06:45:27.403Z,40.32
2023-04-18T06:46:27.301Z,40.29
2023-04-18T06:47:27.168Z,40.25
2023-04-18T06:48:27.134Z,40.18
2023-04-18T06:49:27.108Z,40.16
2023-04-18T06:50:27.143Z,40.23
2023-04-18T06:51:27.128Z,40.26
2023-04-18T06:52:27.089Z,40.12
2023-04-18T06:53:27.115Z,40.12
2023-04-18T06:54:27.086Z,40.37
2023-04-18T06:55:27.138Z,40.40
2023-04-18T06:56:27.084Z,40.30
2023-04-18T06:57:27.096Z,40.32
2023-04-18T06:58:27.062Z,40.32
2023-04-18T06:59:27.065Z,40.31
2023-04-18T07:00:27.055Z,40.28
2023-04-18T07:01:27.130Z,40.55
2023-04-18T07:02:27.156Z,40.40
2023-04-18T07:03:27.104Z,40.36
2023-04-18T07:04:27.086Z,40.35
2023-04-18T07:05:27.051Z,40.35
2023-04-18T07:06:27.009Z,40.35
2023-04-18T07:07:27.039Z,40.30
2023-04-18T07:08:27.029Z,40.51
2023-04-18T07:09:26.978Z,40.43
2023-04-18T07:10:26.973Z,40.50
2023-04-18T07:11:26.941Z,40.41
2023-04-18T07:12:26.956Z,40.35
2023-04-18T07:13:26.960Z,40.40
2023-04-18T07:14:27.002Z,40.43
2023-04-18T07:15:26.957Z,40.38
2023-04-18T07:16:26.949Z,40.47
2023-04-18T07:17:26.956Z,40.36
2023-04-18T07:18:37.320Z,40.36
2023-04-18T07:19:27.971Z,40.38
2023-04-18T07:20:26.977Z,40.31
2023-04-18T07:21:26.980Z,40.37
2023-04-18T07:22:26.975Z,40.61
2023-04-18T07:23:27.017Z,40.42
2023-04-18T07:24:26.937Z,40.44
2023-04-18T07:25:27.391Z,40.47
2023-04-18T07:26:26.941Z,40.52
2023-04-18T07:27:26.917Z,40.51
2023-04-18T07:28:26.908Z,40.55
2023-04-18T07:29:26.932Z,40.49
2023-04-18T07:30:26.915Z,40.41
2023-04-18T07:31:27.950Z,40.47
2023-04-18T07:32:26.932Z,40.51
2023-04-18T07:33:26.932Z,40.51
2023-04-18T07:34:27.003Z,40.63
2023-04-18T07:35:27.000Z,40.83
2023-04-18T07:36:27.076Z,40.65
2023-04-18T07:37:27.096Z,40.59
2023-04-18T07:38:27.097Z,40.59
2023-04-18T07:39:27.125Z,40.66
2023-04-18T07:40:27.448Z,40.71
2023-04-18T07:41:27.211Z,40.73
2023-04-18T07:42:27.228Z,40.81
2023-04-18T07:43:27.242Z,41.19
2023-04-18T07:44:27.275Z,41.91
2023-04-18T07:45:27.408Z,42.90
2023-04-18T07:46:27.356Z,44.11
2023-04-18T07:47:28.298Z,44.30
2023-04-18T07:48:27.326Z,43.50
2023-04-18T07:49:27.287Z,43.43
2023-04-18T07:50:27.454Z,44.52
2023-04-18T07:51:27.259Z,44.51
2023-04-18T07:52:27.324Z,44.75
2023-04-18T07:53:27.340Z,44.37
2023-04-18T07:54:27.398Z,44.33
2023-04-18T07:55:27.449Z,44.74
2023-04-18T07:56:27.491Z,45.85
2023-04-18T07:57:27.563Z,45.95
2023-04-18T07:58:27.623Z,46.30
2023-04-18T07:59:27.648Z,46.75
2023-04-18T08:00:27.814Z,46.62
2023-04-18T08:01:27.733Z,46.52
2023-04-18T08:02:28.470Z,46.90
2023-04-18T08:03:28.085Z,47.00
2023-04-18T08:04:30.108Z,47.13
2023-04-18T08:05:27.866Z,47.31
2023-04-18T08:06:27.774Z,47.53
2023-04-18T08:07:27.794Z,47.71
2023-04-18T08:08:27.782Z,47.93
2023-04-18T08:09:27.747Z,47.84
2023-04-18T08:10:27.803Z,48.34
2023-04-18T08:11:27.740Z,48.46
2023-04-18T08:12:27.739Z,48.73
2023-04-18T08:13:27.753Z,48.78
2023-04-18T08:14:27.748Z,49.20
2023-04-18T08:15:27.724Z,49.58
2023-04-18T08:16:27.750Z,49.97
2023-04-18T08:17:27.736Z,49.68
2023-04-18T08:18:27.689Z,50.03
2023-04-18T08:19:28.389Z,49.58
2023-04-18T08:20:27.673Z,49.88
2023-04-18T08:21:27.698Z,49.67
2023-04-18T08:22:27.666Z,49.63
2023-04-18T08:23:27.651Z,49.81
2023-04-18T08:24:27.653Z,49.48
2023-04-18T08:25:27.658Z,49.92
2023-04-18T08:26:27.645Z,50.13
2023-04-18T08:27:27.651Z,49.96
2023-04-18T08:28:27.645Z,50.35
2023-04-18T08:29:27.615Z,50.05
2023-04-18T08:30:27.608Z,50.30
2023-04-18T08:31:27.673Z,50.67
2023-04-18T08:32:27.630Z,50.45
2023-04-18T08:33:27.588Z,49.96
2023-04-18T08:34:27.579Z,49.86
2023-04-18T08:35:27.556Z,49.74
2023-04-18T08:36:27.930Z,49.65
2023-04-18T08:37:27.552Z,49.47
2023-04-18T08:38:28.330Z,48.65
2023-04-18T08:39:27.521Z,48.91
2023-04-18T08:40:27.582Z,48.80
2023-04-18T08:41:27.924Z,48.85
2023-04-18T08:42:27.515Z,48.91
2023-04-18T08:43:27.536Z,48.35
2023-04-18T08:44:27.510Z,48.51
2023-04-18T08:45:27.522Z,48.78
2023-04-18T08:46:27.955Z,48.89
2023-04-18T08:47:27.507Z,48.78
2023-04-18T08:48:27.532Z,48.54
2023-04-18T08:49:27.491Z,48.70
2023-04-18T08:50:27.536Z,48.52
2023-04-18T08:51:27.926Z,48.47
2023-04-18T08:52:27.648Z,48.07
2023-04-18T08:53:27.741Z,47.99
2023-04-18T08:54:27.767Z,47.86
2023-04-18T08:55:27.727Z,47.95
2023-04-18T08:56:27.914Z,47.94
2023-04-18T08:57:27.785Z,47.27
2023-04-18T08:58:27.798Z,47.16
2023-04-18T08:59:27.775Z,46.95
2023-04-18T09:00:27.831Z,46.81
2023-04-18T09:01:27.818Z,46.54
2023-04-18T09:02:27.814Z,46.56
2023-04-18T09:03:28.477Z,46.37
2023-04-18T09:04:27.981Z,46.32
2023-04-18T09:05:27.798Z,46.48
2023-04-18T09:06:28.003Z,46.44
2023-04-18T09:07:27.791Z,46.33
2023-04-18T09:08:27.769Z,46.42
2023-04-18T09:09:27.774Z,46.44
2023-04-18T09:10:27.765Z,46.43
2023-04-18T09:11:27.781Z,46.28
2023-04-18T09:12:27.753Z,46.32
2023-04-18T09:13:27.765Z,45.97
2023-04-18T09:14:27.724Z,46.06
2023-04-18T09:15:27.750Z,45.91
2023-04-18T09:16:28.028Z,46.05
2023-04-18T09:17:27.794Z,45.95
2023-04-18T09:18:27.710Z,46.16
2023-04-18T09:19:27.734Z,46.12
2023-04-18T09:20:27.732Z,46.05
2023-04-18T09:21:27.738Z,46.01
2023-04-18T09:22:27.738Z,45.97
2023-04-18T09:23:27.753Z,46.08
2023-04-18T09:24:27.768Z,45.88
2023-04-18T09:25:27.827Z,45.73
2023-04-18T09:26:27.807Z,46.03
2023-04-18T09:27:27.858Z,46.22
2023-04-18T09:28:27.899Z,46.19
2023-04-18T09:29:27.901Z,46.26
2023-04-18T09:30:27.901Z,46.24
2023-04-18T09:31:28.097Z,46.29
2023-04-18T09:32:28.027Z,46.28
2023-04-18T09:33:28.112Z,46.37
2023-04-18T09:34:28.107Z,46.55
2023-04-18T09:35:28.144Z,46.60
2023-04-18T09:36:28.495Z,46.71
2023-04-18T09:37:28.258Z,46.89
2023-04-18T09:38:28.301Z,46.62
2023-04-18T09:39:28.351Z,46.47
2023-04-18T09:40:28.397Z,46.60
2023-04-18T09:41:28.967Z,46.96
2023-04-18T09:42:29.026Z,46.72
2023-04-18T09:43:28.544Z,47.55
2023-04-18T09:44:28.605Z,47.51
2023-04-18T09:45:28.645Z,47.76
2023-04-18T09:46:28.996Z,46.84
2023-04-18T09:47:28.738Z,45.12
2023-04-18T09:48:28.743Z,46.91
2023-04-18T09:49:28.786Z,47.61
2023-04-18T09:50:28.846Z,47.95
2023-04-18T09:51:28.945Z,47.74
2023-04-18T09:52:28.979Z,48.01
2023-04-18T09:53:29.049Z,48.29
2023-04-18T09:54:29.046Z,49.03
2023-04-18T09:55:29.096Z,49.34
2023-04-18T09:56:29.102Z,48.62
2023-04-18T09:57:29.154Z,48.81
2023-04-18T09:58:29.176Z,48.83
2023-04-18T09:59:29.168Z,48.98
2023-04-18T10:00:29.186Z,49.33
2023-04-18T10:01:29.199Z,49.39
2023-04-18T10:02:29.289Z,49.51
2023-04-18T10:03:29.248Z,49.48
2023-04-18T10:04:29.256Z,49.99
2023-04-18T10:05:29.201Z,50.01
2023-04-18T10:06:29.186Z,50.09
2023-04-18T10:07:29.121Z,50.18
2023-04-18T10:08:29.162Z,50.31
2023-04-18T10:09:29.175Z,50.70
2023-04-18T10:10:29.166Z,50.31
2023-04-18T10:11:29.229Z,50.38
2023-04-18T10:12:29.140Z,50.29
2023-04-18T10:13:29.190Z,50.15
2023-04-18T10:14:29.175Z,50.29
2023-04-18T10:15:29.212Z,50.14
2023-04-18T10:16:29.306Z,50.20
2023-04-18T10:17:29.797Z,50.20
2023-04-18T10:18:29.283Z,50.39
2023-04-18T10:19:29.300Z,50.45
2023-04-18T10:20:29.293Z,50.44
2023-04-18T10:21:29.370Z,50.48
2023-04-18T10:22:29.371Z,50.44
2023-04-18T10:23:29.359Z,50.30
2023-04-18T10:24:29.388Z,50.41
2023-04-18T10:25:29.428Z,50.58
2023-04-18T10:26:29.599Z,49.97
2023-04-18T10:27:29.514Z,50.56
2023-04-18T10:28:29.601Z,50.67
2023-04-18T10:29:29.636Z,50.67
2023-04-18T10:30:29.688Z,50.34
2023-04-18T10:31:29.915Z,50.14
2023-04-18T10:32:29.842Z,49.79
2023-04-18T10:33:32.131Z,49.63
2023-04-18T10:34:30.094Z,49.52
2023-04-18T10:35:30.128Z,49.26
2023-04-18T10:36:30.508Z,48.71
2023-04-18T10:37:30.201Z,49.40
2023-04-18T10:38:30.278Z,49.07
2023-04-18T10:39:30.289Z,47.10
2023-04-18T10:40:30.290Z,47.72
2023-04-18T10:41:30.282Z,47.91
2023-04-18T10:42:30.333Z,48.15
2023-04-18T10:43:30.295Z,46.49
2023-04-18T10:44:30.334Z,47.89
2023-04-18T10:45:30.384Z,48.25
2023-04-18T10:46:32.260Z,48.14
2023-04-18T10:47:30.447Z,48.29
2023-04-18T10:48:30.418Z,48.24
2023-04-18T10:49:32.601Z,48.16
2023-04-18T10:50:30.498Z,48.18
2023-04-18T10:51:30.546Z,48.21
2023-04-18T10:52:30.614Z,48.63
2023-04-18T10:53:30.652Z,48.64
2023-04-18T10:54:30.678Z,48.66
2023-04-18T10:55:30.703Z,48.78
2023-04-18T10:56:30.731Z,48.53
2023-04-18T10:57:30.757Z,48.32
2023-04-18T10:58:30.742Z,48.07
2023-04-18T10:59:30.838Z,48.19
2023-04-18T11:00:30.859Z,48.22
2023-04-18T11:01:32.738Z,48.13
2023-04-18T11:02:30.912Z,48.10
2023-04-18T11:03:30.961Z,48.10
2023-04-18T11:04:30.970Z,48.04
2023-04-18T11:05:30.840Z,47.87
2023-04-18T11:06:30.834Z,47.89
2023-04-18T11:07:30.824Z,47.72
2023-04-18T11:08:30.850Z,45.68
2023-04-18T11:09:30.818Z,44.88
2023-04-18T11:10:30.854Z,44.65
2023-04-18T11:11:30.873Z,44.84
2023-04-18T11:12:30.861Z,44.84
2023-04-18T11:13:30.898Z,44.74
2023-04-18T11:14:30.908Z,44.79
2023-04-18T11:15:31.249Z,44.69
2023-04-18T11:16:31.056Z,44.61
2023-04-18T11:17:30.967Z,44.59
2023-04-18T11:18:30.936Z,44.56
2023-04-18T11:19:30.969Z,44.50
2023-04-18T11:20:30.981Z,44.05
2023-04-18T11:21:30.973Z,43.33
2023-04-18T11:22:30.981Z,43.71
2023-04-18T11:23:31.027Z,44.59
2023-04-18T11:24:31.077Z,44.39
2023-04-18T11:25:31.043Z,44.39
2023-04-18T11:26:31.045Z,44.76
2023-04-18T11:27:31.469Z,45.13
2023-04-18T11:28:31.080Z,45.28
2023-04-18T11:29:31.088Z,45.19
2023-04-18T11:30:31.214Z,45.29
2023-04-18T11:31:31.171Z,45.29
2023-04-18T11:32:31.564Z,44.73
2023-04-18T11:33:31.160Z,44.60
2023-04-18T11:34:31.159Z,45.42
2023-04-18T11:35:31.997Z,45.67
2023-04-18T11:36:31.229Z,44.69
2023-04-18T11:37:31.465Z,45.08
2023-04-18T11:38:31.294Z,45.25
2023-04-18T11:39:31.228Z,44.74
2023-04-18T11:40:31.255Z,45.46
2023-04-18T11:41:31.285Z,45.98
2023-04-18T11:42:31.312Z,46.23
2023-04-18T11:43:31.329Z,46.57
2023-04-18T11:44:31.930Z,47.15
2023-04-18T11:45:31.343Z,46.36
2023-04-18T11:46:31.427Z,46.50
2023-04-18T11:47:31.408Z,46.90
2023-04-18T11:48:31.417Z,46.75
2023-04-18T11:49:31.431Z,46.58
2023-04-18T11:50:31.459Z,47.13
2023-04-18T11:51:31.436Z,47.35
2023-04-18T11:52:31.445Z,47.44
2023-04-18T11:53:31.467Z,46.84
2023-04-18T11:54:31.446Z,46.44
2023-04-18T11:55:31.474Z,46.98
2023-04-18T11:56:31.459Z,47.34
2023-04-18T11:57:31.472Z,47.83
2023-04-18T11:58:31.441Z,47.77
2023-04-18T11:59:31.415Z,47.60
2023-04-18T12:00:31.476Z,47.89
2023-04-18T12:01:31.418Z,47.85
2023-04-18T12:02:31.543Z,47.89
2023-04-18T12:03:31.645Z,47.76
2023-04-18T12:04:31.612Z,47.50
2023-04-18T12:05:31.855Z,47.61
2023-04-18T12:06:31.544Z,47.51
2023-04-18T12:07:31.458Z,47.28
2023-04-18T12:08:31.463Z,47.31
2023-04-18T12:09:31.455Z,47.26
2023-04-18T12:10:31.465Z,47.24
2023-04-18T12:11:31.518Z,47.22
2023-04-18T12:12:31.590Z,47.09
2023-04-18T12:13:31.541Z,47.82
2023-04-18T12:14:31.580Z,47.71
2023-04-18T12:15:31.611Z,47.92
2023-04-18T12:16:31.731Z,47.98
2023-04-18T12:17:31.759Z,47.99
2023-04-18T12:18:31.733Z,48.27
2023-04-18T12:19:31.719Z,47.85
2023-04-18T12:20:31.740Z,47.69
2023-04-18T12:21:31.773Z,47.43
2023-04-18T12:22:31.791Z,47.33
2023-04-18T12:23:31.779Z,46.82
2023-04-18T12:24:31.764Z,46.69
2023-04-18T12:25:31.798Z,46.44
2023-04-18T12:26:31.828Z,44.21
2023-04-18T12:27:31.810Z,44.91
2023-04-18T12:28:31.814Z,46.31
2023-04-18T12:29:31.805Z,46.82
2023-04-18T12:30:31.813Z,46.14
2023-04-18T12:31:31.855Z,45.80
2023-04-18T12:32:31.853Z,46.24
2023-04-18T12:33:31.863Z,46.55
2023-04-18T12:34:31.820Z,46.52
2023-04-18T12:35:31.807Z,46.35
2023-04-18T12:36:31.784Z,46.22
2023-04-18T12:37:31.795Z,45.68
2023-04-18T12:38:31.803Z,45.42
2023-04-18T12:39:31.799Z,45.50
2023-04-18T12:40:31.800Z,44.86
2023-04-18T12:41:31.809Z,44.83
2023-04-18T12:42:31.770Z,45.03
2023-04-18T12:43:31.772Z,45.73
2023-04-18T12:44:31.783Z,46.04
2023-04-18T12:45:31.804Z,46.34
2023-04-18T12:46:31.829Z,46.15
2023-04-18T12:47:31.794Z,46.00
2023-04-18T12:48:31.813Z,46.07
2023-04-18T12:49:31.801Z,46.00
2023-04-18T12:50:31.803Z,45.80
2023-04-18T12:51:31.797Z,45.71
2023-04-18T12:52:31.791Z,45.08
2023-04-18T12:53:31.757Z,45.15